WetterOnline ( https://www.wetteronline.de )

Wetter aktuell Garmisch-Partenkirchen

Aktuelles Wetter: Garmisch-Partenkirchen (719m)

6-stündlich | Neueste Meldungen
Ortszeit Temperatur Wetter
So, 05.02. 7:00 -0.9° C bedeckt
So, 05.02. 1:00 0.7° C Schneegriesel
Sa, 04.02. 19:00 1.0° C bewölkt
Sa, 04.02. 13:00 2.6° C bedeckt
Sa, 04.02. 7:00 2.3° C leichter Regen
Sa, 04.02. 1:00 3.3° C Regen
Fr, 03.02. 19:00 7.4° C leichter Regen
Fr, 03.02. 13:00 4.7° C bedeckt
Ortszeit Temperatur Wetter
So, 05.02. 9:00 -2.7° C leicht bewölkt
So, 05.02. 8:50 -2.7° C leicht bewölkt
So, 05.02. 8:40 -2.2° C leicht bewölkt
So, 05.02. 8:30 -2.2° C leicht bewölkt
So, 05.02. 8:20 -2.2° C leicht bewölkt
So, 05.02. 8:10 -2.1° C leicht bewölkt
So, 05.02. 8:00 -2.0° C bewölkt
So, 05.02. 7:30 -1.4° C bewölkt
So, 05.02. 7:00 -0.9° C bedeckt
So, 05.02. 6:30 -0.7° C bedeckt
So, 05.02. 6:00 -0.7° C bedeckt
Ortszeit Relative Feuchte Sichtweite
So, 05.02. 7:00 90% 18 km
So, 05.02. 1:00 86% 45 km
Sa, 04.02. 19:00 94% 35 km
Sa, 04.02. 13:00 78% 60 km
Sa, 04.02. 7:00 97% 12 km
Sa, 04.02. 1:00 91% 5.0 km
Fr, 03.02. 19:00 48% 40 km
Fr, 03.02. 13:00 70% >70 km
Ortszeit Relative Feuchte Sichtweite
So, 05.02. 9:00 92% 29 km
So, 05.02. 8:50 92% -
So, 05.02. 8:40 91% -
So, 05.02. 8:30 93% 20 km
So, 05.02. 8:20 93% -
So, 05.02. 8:10 92% -
So, 05.02. 8:00 92% 29 km
So, 05.02. 7:30 90% 30 km
So, 05.02. 7:00 90% 18 km
So, 05.02. 6:30 89% 30 km
So, 05.02. 6:00 93% 16 km
Ortszeit Niederschlagsmenge Niederschlagsart
So, 05.02. 7:00 0.1 l/m2 in 12 Std. Schnee
So, 05.02. 1:00 0.1 l/m2 in 6 Std. Schnee, Sprühregen
Sa, 04.02. 19:00 0.4 l/m2 in 12 Std. Schnee, Regen
Sa, 04.02. 13:00 0.4 l/m2 in 6 Std. Schnee, Regen
Sa, 04.02. 7:00 17 l/m2 in 12 Std. Regen
Sa, 04.02. 1:00 11 l/m2 in 6 Std. Regen
Fr, 03.02. 19:00 0.2 l/m2 in 12 Std. Regen
Fr, 03.02. 13:00 0.0 l/m2 in 6 Std. -
Ortszeit Niederschlagsmenge Niederschlagsart
So, 05.02. 9:00 0.0 l/m2 in 1 Std. -
So, 05.02. 8:50 keine Meldung -
So, 05.02. 8:40 keine Meldung -
So, 05.02. 8:30 0.0 l/m2 in 30 Min -
So, 05.02. 8:20 keine Meldung -
So, 05.02. 8:10 keine Meldung -
So, 05.02. 8:00 0.0 l/m2 in 1 Std. -
So, 05.02. 7:30 0.0 l/m2 in 30 Min -
So, 05.02. 7:00 0.0 l/m2 in 1 Std. Schnee
So, 05.02. 6:30 0.0 l/m2 in 30 Min -
So, 05.02. 6:00 0.0 l/m2 in 1 Std. -
Ortszeit Stärke Spitze Richtung
km/h Bft. km/h Grad Sektor
So, 05.02. 7:00 4 1 11 280° W
So, 05.02. 1:00 4 1 14 90° O
Sa, 04.02. 19:00 4 1 22 310° NW
Sa, 04.02. 13:00 7 2 36 30° NO
Sa, 04.02. 7:00 4 1 29 210° SW
Sa, 04.02. 1:00 7 2 36 280° W
Fr, 03.02. 19:00 9 2 31 270° W
Fr, 03.02. 13:00 7 2 19 90° O
Ortszeit Stärke Spitze Richtung
km/h Bft. km/h Grad Sektor
So, 05.02. 9:00 6 1 7 200° S
So, 05.02. 8:50 6 1 - 200° S
So, 05.02. 8:40 4 1 - 240° SW
So, 05.02. 8:30 4 1 4 260° W
So, 05.02. 8:20 4 1 - 260° W
So, 05.02. 8:10 4 1 - 250° W
So, 05.02. 8:00 4 1 7 210° SW
So, 05.02. 7:30 4 1 7 210° SW
So, 05.02. 7:00 4 1 7 280° W
So, 05.02. 6:30 4 1 7 190° S
So, 05.02. 6:00 4 1 7 230° SW
Ortszeit Untergrenze Bedeckung Gattung
total tief tief mittel hoch
So, 05.02. 7:00 240 m 8/8 8/8 - - -
So, 05.02. 1:00 300 m 8/8 8/8 - - -
Sa, 04.02. 19:00 690 m 7/8 7/8 - - -
Sa, 04.02. 13:00 600 m 8/8 8/8 - - -
Sa, 04.02. 7:00 570 m 8/8 8/8 - - -
Sa, 04.02. 1:00 630 m 7/8 7/8 - - -
Fr, 03.02. 19:00 840 m 8/8 8/8 - - -
Fr, 03.02. 13:00 3300 m 8/8 8/8 - - -
Ortszeit Bedeckungsgrad in Achtel und Wolkenuntergrenze
So, 05.02. 9:00 2(240m) 4(7500m)
So, 05.02. 8:50 2(240m) 4(7500m)
So, 05.02. 8:40 3
So, 05.02. 8:30 1(210m)
So, 05.02. 8:20 1(210m) 2(3600m) 2(7800m)
So, 05.02. 8:10 3
So, 05.02. 8:00 6(210m) 7(3600m) 7(8400m)
So, 05.02. 7:30 7(270m) 8(3600m) 8(8100m)
So, 05.02. 7:00 8(240m)
So, 05.02. 6:30 8(210m)
So, 05.02. 6:00 8(180m)
Ortszeit Luftdruck NN (hPa) Tendenz (hPa in 3 Std.)
So, 05.02. 7:00 1038 - 0,5
So, 05.02. 1:00 1039 + 0,6
Sa, 04.02. 19:00 1038 + 1,2
Sa, 04.02. 13:00 1036 + 0,6
Sa, 04.02. 7:00 1033 + 1,6
Sa, 04.02. 1:00 1030 + 0,5
Fr, 03.02. 19:00 1027 - 0,2
Fr, 03.02. 13:00 1030 - 0,4
Ortszeit Luftdruck NN (hPa) Tendenz (hPa in 3 Std.)
So, 05.02. 9:00 1040 + 0,3
So, 05.02. 8:50 1040 keine Meldung
So, 05.02. 8:40 1040 keine Meldung
So, 05.02. 8:30 1039 + 0,1
So, 05.02. 8:20 1039 keine Meldung
So, 05.02. 8:10 1039 keine Meldung
So, 05.02. 8:00 1039 + 0,1
So, 05.02. 7:30 1039 - 0,5
So, 05.02. 7:00 1038 - 0,5
So, 05.02. 6:30 1038 - 0,7
So, 05.02. 6:00 1039 - 0,6
Ortszeit Schneehöhe (cm)
So, 05.02. 7:00 0
So, 05.02. 1:00 0
Sa, 04.02. 19:00 0
Sa, 04.02. 13:00 0
Sa, 04.02. 7:00 0
Sa, 04.02. 1:00 0
Fr, 03.02. 19:00 -
Fr, 03.02. 13:00 3
Ortszeit Schneehöhe (cm)
So, 05.02. 9:00 0
So, 05.02. 8:50 0
So, 05.02. 8:40 0
So, 05.02. 8:30 0
So, 05.02. 8:20 0
So, 05.02. 8:10 0
So, 05.02. 8:00 0
So, 05.02. 7:30 0
So, 05.02. 7:00 0
So, 05.02. 6:30 0
So, 05.02. 6:00 0
Link zu dieser Seite / Seite empfehlen

Das Wetter in ...